Hometown, West Virginia
Current Conditions -  °F | °C
As of 8:54 AM on Friday 19 Dec 2014 (Local Time) from KCRW Reporting Station
Overcast Overcast  
Wind Chill: 29°   Ceiling: 2300
Heat Index: 29°   Visibility: 9mi
Dew Point: 21°   Wind: 3mph
Humidity: 72%   Direction: 330°NNW
Pressure: 30.27"   Gusts: NA
Location:  38.53°N, 81.86°W
Report Text: KCRW 191354Z 33003KT 9SM OVC023 M02/M06 A3027 RMK AO2 SLP260 T10171061
Loading
Personal Weather Stations






























Interactive Weather Map New forecast layout! Learn more

10-Day Weather Forecast

Advertisements
Track Severe Weather on mobile